sensor_id;sensor_type;location;lat;lon;timestamp;pressure;altitude;pressure_sealevel;temperature;humidity
15646;BME280;7922;43.622;1.476;2023-02-19T00:01:40;101375.78;;;6.35;91.81
15646;BME280;7922;43.622;1.476;2023-02-19T00:04:15;101302.19;;;5.92;91.76
15646;BME280;7922;43.622;1.476;2023-02-19T00:06:40;101318.00;;;6.01;91.23
15646;BME280;7922;43.622;1.476;2023-02-19T00:09:06;101286.41;;;5.84;91.22
15646;BME280;7922;43.622;1.476;2023-02-19T00:11:33;101315.34;;;6.01;91.01
15646;BME280;7922;43.622;1.476;2023-02-19T00:13:59;101316.22;;;6.05;90.87
15646;BME280;7922;43.622;1.476;2023-02-19T00:16:31;101350.41;;;6.14;90.56
15646;BME280;7922;43.622;1.476;2023-02-19T00:18:59;101177.94;;;5.09;90.46
15646;BME280;7922;43.622;1.476;2023-02-19T00:21:24;101303.06;;;5.88;90.83
15646;BME280;7922;43.622;1.476;2023-02-19T00:23:51;101364.44;;;6.14;91.73
15646;BME280;7922;43.622;1.476;2023-02-19T00:26:17;101305.72;;;5.85;91.32
15646;BME280;7922;43.622;1.476;2023-02-19T00:28:43;101289.09;;;5.72;91.18
15646;BME280;7922;43.622;1.476;2023-02-19T00:33:45;101342.56;;;5.92;90.23
15646;BME280;7922;43.622;1.476;2023-02-19T00:36:10;101329.38;;;5.86;91.07
15646;BME280;7922;43.622;1.476;2023-02-19T00:38:37;101334.63;;;5.91;90.46
15646;BME280;7922;43.622;1.476;2023-02-19T00:41:03;101157.78;;;4.75;90.09
15646;BME280;7922;43.622;1.476;2023-02-19T00:43:28;101287.34;;;5.49;90.03
15646;BME280;7922;43.622;1.476;2023-02-19T00:45:53;101297.00;;;5.49;90.92
15646;BME280;7922;43.622;1.476;2023-02-19T00:48:18;101297.00;;;5.52;90.98
15646;BME280;7922;43.622;1.476;2023-02-19T00:50:44;101309.25;;;5.54;90.63
15646;BME280;7922;43.622;1.476;2023-02-19T00:53:09;101270.72;;;5.30;90.66
15646;BME280;7922;43.622;1.476;2023-02-19T00:55:34;101326.75;;;5.62;91.38
15646;BME280;7922;43.622;1.476;2023-02-19T00:58:00;101268.97;;;5.36;90.44
15646;BME280;7922;43.622;1.476;2023-02-19T01:00:25;101158.69;;;4.67;90.58
15646;BME280;7922;43.622;1.476;2023-02-19T01:02:50;101234.81;;;5.06;90.27
15646;BME280;7922;43.622;1.476;2023-02-19T01:05:16;101306.63;;;5.47;90.47
15646;BME280;7922;43.622;1.476;2023-02-19T01:07:41;101314.50;;;5.42;90.76
15646;BME280;7922;43.622;1.476;2023-02-19T01:10:06;101313.63;;;5.36;90.75
15646;BME280;7922;43.622;1.476;2023-02-19T01:12:32;101247.94;;;4.96;90.20
15646;BME280;7922;43.622;1.476;2023-02-19T01:14:57;101271.59;;;5.05;90.59
15646;BME280;7922;43.622;1.476;2023-02-19T01:17:23;101339.94;;;5.45;91.47
15646;BME280;7922;43.622;1.476;2023-02-19T01:19:48;101248.81;;;4.81;90.75
15646;BME280;7922;43.622;1.476;2023-02-19T01:22:13;101277.72;;;5.02;90.11
15646;BME280;7922;43.622;1.476;2023-02-19T01:24:39;101288.19;;;4.96;90.57
15646;BME280;7922;43.622;1.476;2023-02-19T01:27:04;101310.09;;;5.06;91.01
15646;BME280;7922;43.622;1.476;2023-02-19T01:29:29;101217.28;;;4.50;91.31
15646;BME280;7922;43.622;1.476;2023-02-19T01:31:55;101285.56;;;4.81;91.37
15646;BME280;7922;43.622;1.476;2023-02-19T01:34:20;101286.44;;;4.83;91.59
15646;BME280;7922;43.622;1.476;2023-02-19T01:36:45;101287.28;;;4.79;91.71
15646;BME280;7922;43.622;1.476;2023-02-19T01:39:10;101181.31;;;4.19;91.20
15646;BME280;7922;43.622;1.476;2023-02-19T01:41:38;101321.47;;;5.00;91.98
15646;BME280;7922;43.622;1.476;2023-02-19T01:44:07;101299.56;;;4.92;91.56
15646;BME280;7922;43.622;1.476;2023-02-19T01:46:51;101155.06;;;4.09;90.84
15646;BME280;7922;43.622;1.476;2023-02-19T01:49:21;101318.84;;;5.06;91.36
15646;BME280;7922;43.622;1.476;2023-02-19T01:51:56;101148.06;;;4.02;90.50
15646;BME280;7922;43.622;1.476;2023-02-19T01:54:26;101269.78;;;4.69;91.51
15646;BME280;7922;43.622;1.476;2023-02-19T01:56:53;101166.44;;;4.12;91.01
15646;BME280;7922;43.622;1.476;2023-02-19T01:59:18;101333.72;;;5.07;91.25
15646;BME280;7922;43.622;1.476;2023-02-19T02:01:44;101276.78;;;4.70;90.75
15646;BME280;7922;43.622;1.476;2023-02-19T02:04:11;101230.34;;;4.38;90.95
15646;BME280;7922;43.622;1.476;2023-02-19T02:06:54;101346.91;;;5.12;90.87
15646;BME280;7922;43.622;1.476;2023-02-19T02:09:22;101165.56;;;4.09;90.30
15646;BME280;7922;43.622;1.476;2023-02-19T02:11:51;101308.34;;;4.87;89.99
15646;BME280;7922;43.622;1.476;2023-02-19T02:14:18;101148.00;;;3.87;90.25
15646;BME280;7922;43.622;1.476;2023-02-19T02:19:48;101307.44;;;4.83;89.73
15646;BME280;7922;43.622;1.476;2023-02-19T02:27:59;101299.44;;;4.45;90.23
15646;BME280;7922;43.622;1.476;2023-02-19T02:35:50;101237.22;;;4.08;91.10
15646;BME280;7922;43.622;1.476;2023-02-19T02:38:19;101319.63;;;4.63;91.35
15646;BME280;7922;43.622;1.476;2023-02-19T02:40:46;101283.66;;;4.35;91.05
15646;BME280;7922;43.622;1.476;2023-02-19T02:43:12;101267.91;;;4.29;91.26
15646;BME280;7922;43.622;1.476;2023-02-19T02:45:37;101200.44;;;3.90;90.49
15646;BME280;7922;43.622;1.476;2023-02-19T02:48:20;101286.28;;;4.32;90.80
15646;BME280;7922;43.622;1.476;2023-02-19T02:55:52;101159.25;;;3.63;91.17
15646;BME280;7922;43.622;1.476;2023-02-19T02:58:19;101198.66;;;3.84;90.75
15646;BME280;7922;43.622;1.476;2023-02-19T03:00:51;101126.00;;;3.42;91.28
15646;BME280;7922;43.622;1.476;2023-02-19T03:03:21;101321.34;;;4.54;91.42
15646;BME280;7922;43.622;1.476;2023-02-19T03:05:48;101228.47;;;4.00;90.88
15646;BME280;7922;43.622;1.476;2023-02-19T03:08:22;101255.63;;;4.15;91.50
15646;BME280;7922;43.622;1.476;2023-02-19T03:10:54;101116.31;;;3.33;90.96
15646;BME280;7922;43.622;1.476;2023-02-19T03:13:32;101258.22;;;4.16;90.60
15646;BME280;7922;43.622;1.476;2023-02-19T03:16:11;101218.78;;;3.87;91.34
15646;BME280;7922;43.622;1.476;2023-02-19T03:18:41;101264.31;;;4.14;90.89
15646;BME280;7922;43.622;1.476;2023-02-19T03:21:07;101273.09;;;4.14;91.49
15646;BME280;7922;43.622;1.476;2023-02-19T03:23:34;101268.66;;;4.01;91.04
15646;BME280;7922;43.622;1.476;2023-02-19T03:26:01;101089.94;;;2.95;91.02
15646;BME280;7922;43.622;1.476;2023-02-19T03:28:28;101307.19;;;4.20;90.63
15646;BME280;7922;43.622;1.476;2023-02-19T03:30:56;101193.28;;;3.54;91.50
15646;BME280;7922;43.622;1.476;2023-02-19T03:33:25;101242.31;;;3.76;91.20
15646;BME280;7922;43.622;1.476;2023-02-19T03:35:56;101308.91;;;4.10;91.74
15646;BME280;7922;43.622;1.476;2023-02-19T03:38:25;101163.38;;;3.21;92.18
15646;BME280;7922;43.622;1.476;2023-02-19T03:41:06;101220.34;;;3.54;92.07
15646;BME280;7922;43.622;1.476;2023-02-19T03:43:43;101273.78;;;3.79;91.88
15646;BME280;7922;43.622;1.476;2023-02-19T03:46:41;101317.63;;;4.09;91.99
15646;BME280;7922;43.622;1.476;2023-02-19T03:49:53;101286.09;;;3.96;91.33
15646;BME280;7922;43.622;1.476;2023-02-19T03:55:03;101266.75;;;3.72;92.33
15646;BME280;7922;43.622;1.476;2023-02-19T03:57:38;101313.25;;;4.07;92.05
15646;BME280;7922;43.622;1.476;2023-02-19T04:00:12;101323.75;;;4.07;91.77
15646;BME280;7922;43.622;1.476;2023-02-19T04:03:17;101322.88;;;4.09;90.99
15646;BME280;7922;43.622;1.476;2023-02-19T04:05:52;101277.31;;;3.88;90.93
15646;BME280;7922;43.622;1.476;2023-02-19T04:08:21;101215.06;;;3.48;91.00
15646;BME280;7922;43.622;1.476;2023-02-19T04:10:49;101035.25;;;2.11;90.88
15646;BME280;7922;43.622;1.476;2023-02-19T04:13:20;101311.44;;;3.95;92.20
15646;BME280;7922;43.622;1.476;2023-02-19T04:15:47;101168.50;;;3.04;91.84
15646;BME280;7922;43.622;1.476;2023-02-19T04:18:17;101165.81;;;2.97;91.57
15646;BME280;7922;43.622;1.476;2023-02-19T04:20:45;101269.25;;;3.55;91.90
15646;BME280;7922;43.622;1.476;2023-02-19T04:23:12;101324.50;;;3.91;91.72
15646;BME280;7922;43.622;1.476;2023-02-19T04:25:41;101247.38;;;3.49;91.06
15646;BME280;7922;43.622;1.476;2023-02-19T04:28:08;101296.47;;;3.76;91.49
15646;BME280;7922;43.622;1.476;2023-02-19T04:30:33;101131.69;;;2.80;91.58
15646;BME280;7922;43.622;1.476;2023-02-19T04:32:59;101226.22;;;3.20;91.81
15646;BME280;7922;43.622;1.476;2023-02-19T04:35:24;101306.88;;;3.65;90.93
15646;BME280;7922;43.622;1.476;2023-02-19T04:37:49;101275.28;;;3.44;90.81
15646;BME280;7922;43.622;1.476;2023-02-19T04:40:14;101222.72;;;3.21;91.15
15646;BME280;7922;43.622;1.476;2023-02-19T04:42:40;101103.50;;;2.45;91.36
15646;BME280;7922;43.622;1.476;2023-02-19T04:45:05;101225.25;;;3.11;91.51
15646;BME280;7922;43.622;1.476;2023-02-19T04:47:31;101137.66;;;2.63;91.13
15646;BME280;7922;43.622;1.476;2023-02-19T04:49:56;101158.66;;;2.76;91.36
15646;BME280;7922;43.622;1.476;2023-02-19T04:52:22;101277.84;;;3.34;91.35
15646;BME280;7922;43.622;1.476;2023-02-19T04:54:47;101251.53;;;3.22;91.25
15646;BME280;7922;43.622;1.476;2023-02-19T04:57:12;101347.88;;;3.61;91.42
15646;BME280;7922;43.622;1.476;2023-02-19T04:59:38;101276.03;;;3.27;91.29
15646;BME280;7922;43.622;1.476;2023-02-19T05:02:03;101133.09;;;2.42;91.09
15646;BME280;7922;43.622;1.476;2023-02-19T05:04:28;101260.19;;;3.13;90.99
15646;BME280;7922;43.622;1.476;2023-02-19T05:06:53;101297.06;;;3.41;90.92
15646;BME280;7922;43.622;1.476;2023-02-19T05:09:19;101151.44;;;2.46;90.84
15646;BME280;7922;43.622;1.476;2023-02-19T05:11:44;101348.75;;;3.60;91.28
15646;BME280;7922;43.622;1.476;2023-02-19T05:14:09;101286.47;;;3.24;91.69
15646;BME280;7922;43.622;1.476;2023-02-19T05:16:34;101319.81;;;3.44;91.13
15646;BME280;7922;43.622;1.476;2023-02-19T05:19:00;101153.19;;;2.47;91.02
15646;BME280;7922;43.622;1.476;2023-02-19T05:21:25;101256.56;;;2.98;90.86
15646;BME280;7922;43.622;1.476;2023-02-19T05:23:50;101286.34;;;3.12;90.85
15646;BME280;7922;43.622;1.476;2023-02-19T05:26:18;101222.38;;;2.78;90.79
15646;BME280;7922;43.622;1.476;2023-02-19T05:28:44;101300.34;;;3.12;91.52
15646;BME280;7922;43.622;1.476;2023-02-19T05:31:11;101374.88;;;3.50;91.02
15646;BME280;7922;43.622;1.476;2023-02-19T05:33:36;101315.22;;;3.17;91.28
15646;BME280;7922;43.622;1.476;2023-02-19T05:36:06;101297.63;;;3.03;90.89
15646;BME280;7922;43.622;1.476;2023-02-19T05:38:31;101331.94;;;3.32;90.65
15646;BME280;7922;43.622;1.476;2023-02-19T05:41:12;101267.84;;;2.91;90.83
15646;BME280;7922;43.622;1.476;2023-02-19T05:43:39;101276.53;;;2.89;90.66
15646;BME280;7922;43.622;1.476;2023-02-19T05:46:05;101140.66;;;2.13;90.18
15646;BME280;7922;43.622;1.476;2023-02-19T05:48:31;101262.53;;;2.80;90.51
15646;BME280;7922;43.622;1.476;2023-02-19T05:51:06;101340.56;;;3.22;91.02
15646;BME280;7922;43.622;1.476;2023-02-19T05:53:32;101263.28;;;2.71;90.86
15646;BME280;7922;43.622;1.476;2023-02-19T05:55:57;101366.84;;;3.33;90.77
15646;BME280;7922;43.622;1.476;2023-02-19T05:58:23;101293.13;;;2.90;90.80
15646;BME280;7922;43.622;1.476;2023-02-19T06:00:48;101309.72;;;2.94;90.86
15646;BME280;7922;43.622;1.476;2023-02-19T06:03:14;101306.28;;;2.96;90.22
15646;BME280;7922;43.622;1.476;2023-02-19T06:05:39;101337.00;;;3.16;90.12
15646;BME280;7922;43.622;1.476;2023-02-19T06:08:04;101339.69;;;3.20;90.31
15646;BME280;7922;43.622;1.476;2023-02-19T06:10:29;101316.81;;;3.02;90.27
15646;BME280;7922;43.622;1.476;2023-02-19T06:12:55;101314.88;;;2.86;90.97
15646;BME280;7922;43.622;1.476;2023-02-19T06:15:20;101331.50;;;2.89;90.36
15646;BME280;7922;43.622;1.476;2023-02-19T06:17:45;101334.09;;;2.85;90.90
15646;BME280;7922;43.622;1.476;2023-02-19T06:20:10;101296.38;;;2.66;91.09
15646;BME280;7922;43.622;1.476;2023-02-19T06:22:36;101311.16;;;2.64;91.31
15646;BME280;7922;43.622;1.476;2023-02-19T06:25:01;101349.91;;;2.97;91.24
15646;BME280;7922;43.622;1.476;2023-02-19T06:27:26;101338.44;;;2.86;91.54
15646;BME280;7922;43.622;1.476;2023-02-19T06:29:52;101309.53;;;2.75;90.46
15646;BME280;7922;43.622;1.476;2023-02-19T06:32:17;101334.88;;;2.79;90.56
15646;BME280;7922;43.622;1.476;2023-02-19T06:34:42;101316.47;;;2.72;90.40
15646;BME280;7922;43.622;1.476;2023-02-19T06:37:07;101253.34;;;2.39;90.27
15646;BME280;7922;43.622;1.476;2023-02-19T06:39:33;101315.44;;;2.57;90.04
15646;BME280;7922;43.622;1.476;2023-02-19T06:41:58;101343.50;;;2.72;89.79
15646;BME280;7922;43.622;1.476;2023-02-19T06:44:24;101314.66;;;2.64;90.54
15646;BME280;7922;43.622;1.476;2023-02-19T06:46:49;101246.19;;;2.23;90.74
15646;BME280;7922;43.622;1.476;2023-02-19T06:49:15;101373.41;;;2.93;91.16
15646;BME280;7922;43.622;1.476;2023-02-19T06:51:41;101377.81;;;2.97;90.70
15646;BME280;7922;43.622;1.476;2023-02-19T06:54:06;101275.13;;;2.37;90.71
15646;BME280;7922;43.622;1.476;2023-02-19T06:56:34;101167.22;;;1.77;90.57
15646;BME280;7922;43.622;1.476;2023-02-19T06:59:01;101385.72;;;3.00;90.50
15646;BME280;7922;43.622;1.476;2023-02-19T07:01:29;101158.47;;;1.74;90.47
15646;BME280;7922;43.622;1.476;2023-02-19T07:03:55;101352.47;;;2.91;90.02
15646;BME280;7922;43.622;1.476;2023-02-19T07:06:21;101353.31;;;2.90;89.78
15646;BME280;7922;43.622;1.476;2023-02-19T07:08:48;101233.09;;;2.20;89.67
15646;BME280;7922;43.622;1.476;2023-02-19T07:11:14;101342.84;;;2.90;90.57
15646;BME280;7922;43.622;1.476;2023-02-19T07:13:39;101215.63;;;2.14;90.30
15646;BME280;7922;43.622;1.476;2023-02-19T07:16:07;101384.91;;;3.07;90.11
15646;BME280;7922;43.622;1.476;2023-02-19T07:18:32;101377.06;;;3.08;90.23
15646;BME280;7922;43.622;1.476;2023-02-19T07:21:12;101279.81;;;2.67;90.06
15646;BME280;7922;43.622;1.476;2023-02-19T07:23:39;101444.03;;;3.69;89.76
15646;BME280;7922;43.622;1.476;2023-02-19T07:26:08;101262.41;;;2.72;89.10
15646;BME280;7922;43.622;1.476;2023-02-19T07:28:33;101216.94;;;2.56;89.13
15646;BME280;7922;43.622;1.476;2023-02-19T07:31:00;101450.41;;;4.01;88.33
15646;BME280;7922;43.622;1.476;2023-02-19T07:33:26;101422.44;;;3.97;88.77
15646;BME280;7922;43.622;1.476;2023-02-19T07:35:51;101303.91;;;3.22;88.28
15646;BME280;7922;43.622;1.476;2023-02-19T07:38:20;101385.63;;;3.83;87.99
15646;BME280;7922;43.622;1.476;2023-02-19T07:40:57;101281.34;;;3.38;87.83
15646;BME280;7922;43.622;1.476;2023-02-19T07:43:24;101268.25;;;3.41;87.58
15646;BME280;7922;43.622;1.476;2023-02-19T07:45:50;101359.56;;;4.03;87.03
15646;BME280;7922;43.622;1.476;2023-02-19T07:48:16;101401.66;;;4.25;87.70
15646;BME280;7922;43.622;1.476;2023-02-19T07:50:50;101466.63;;;4.70;86.96
15646;BME280;7922;43.622;1.476;2023-02-19T07:53:15;101427.22;;;4.64;87.18
15646;BME280;7922;43.622;1.476;2023-02-19T07:55:41;101377.25;;;4.37;86.38
15646;BME280;7922;43.622;1.476;2023-02-19T07:58:06;101278.22;;;3.90;86.88
15646;BME280;7922;43.622;1.476;2023-02-19T08:00:31;101254.63;;;3.93;86.19
15646;BME280;7922;43.622;1.476;2023-02-19T08:02:56;101280.91;;;4.09;86.30
15646;BME280;7922;43.622;1.476;2023-02-19T08:05:22;101431.78;;;5.05;85.40
15646;BME280;7922;43.622;1.476;2023-02-19T08:07:47;101428.31;;;5.17;85.31
15646;BME280;7922;43.622;1.476;2023-02-19T08:10:12;101445.84;;;5.28;85.66
15646;BME280;7922;43.622;1.476;2023-02-19T08:12:37;101391.50;;;5.07;85.67
15646;BME280;7922;43.622;1.476;2023-02-19T08:15:03;101323.19;;;4.81;85.75
15646;BME280;7922;43.622;1.476;2023-02-19T08:17:28;101444.19;;;5.69;84.87
15646;BME280;7922;43.622;1.476;2023-02-19T08:19:53;101296.94;;;4.94;84.38
15646;BME280;7922;43.622;1.476;2023-02-19T08:22:19;101419.66;;;5.80;84.13
15646;BME280;7922;43.622;1.476;2023-02-19T08:24:44;101436.34;;;5.95;84.03
15646;BME280;7922;43.622;1.476;2023-02-19T08:27:09;101331.16;;;5.50;83.67
15646;BME280;7922;43.622;1.476;2023-02-19T08:29:34;101452.97;;;6.40;83.75
15646;BME280;7922;43.622;1.476;2023-02-19T08:32:00;101294.34;;;5.69;83.70
15646;BME280;7922;43.622;1.476;2023-02-19T08:34:25;101426.63;;;6.50;82.88
15646;BME280;7922;43.622;1.476;2023-02-19T08:36:50;101293.44;;;5.85;83.03
15646;BME280;7922;43.622;1.476;2023-02-19T08:39:15;101472.97;;;7.00;82.25
15646;BME280;7922;43.622;1.476;2023-02-19T08:41:41;101297.81;;;6.05;82.93
15646;BME280;7922;43.622;1.476;2023-02-19T08:44:06;101429.09;;;6.96;82.48
15646;BME280;7922;43.622;1.476;2023-02-19T08:46:31;101429.03;;;7.13;81.79
15646;BME280;7922;43.622;1.476;2023-02-19T08:48:56;101322.13;;;6.68;81.59
15646;BME280;7922;43.622;1.476;2023-02-19T08:51:22;101451.63;;;7.54;81.28
15646;BME280;7922;43.622;1.476;2023-02-19T08:53:47;101440.97;;;7.74;80.69
15646;BME280;7922;43.622;1.476;2023-02-19T08:56:14;101440.97;;;7.69;80.68
15646;BME280;7922;43.622;1.476;2023-02-19T08:58:40;101367.38;;;7.39;80.29
15646;BME280;7922;43.622;1.476;2023-02-19T09:01:13;101485.38;;;8.28;80.83
15646;BME280;7922;43.622;1.476;2023-02-19T09:03:39;101475.66;;;8.39;79.82
15646;BME280;7922;43.622;1.476;2023-02-19T09:06:05;101434.38;;;8.23;79.46
15646;BME280;7922;43.622;1.476;2023-02-19T09:08:30;101330.19;;;7.72;78.98
15646;BME280;7922;43.622;1.476;2023-02-19T09:11:00;101460.47;;;8.59;78.77
15646;BME280;7922;43.622;1.476;2023-02-19T09:13:25;101360.53;;;8.16;77.51
15646;BME280;7922;43.622;1.476;2023-02-19T09:15:51;101329.81;;;8.11;77.38
15646;BME280;7922;43.622;1.476;2023-02-19T09:18:16;101329.72;;;8.18;76.97
15646;BME280;7922;43.622;1.476;2023-02-19T09:20:41;101472.25;;;9.08;77.75
15646;BME280;7922;43.622;1.476;2023-02-19T09:23:06;101460.84;;;9.04;76.92
15646;BME280;7922;43.622;1.476;2023-02-19T09:25:32;101470.22;;;9.30;76.46
15646;BME280;7922;43.622;1.476;2023-02-19T09:27:57;101318.78;;;8.52;75.87
15646;BME280;7922;43.622;1.476;2023-02-19T09:30:22;101475.22;;;9.50;75.57
15646;BME280;7922;43.622;1.476;2023-02-19T09:32:48;101514.28;;;9.93;75.24
15646;BME280;7922;43.622;1.476;2023-02-19T09:35:13;101486.19;;;9.82;75.23
15646;BME280;7922;43.622;1.476;2023-02-19T09:37:38;101403.94;;;9.40;75.45
15646;BME280;7922;43.622;1.476;2023-02-19T09:40:04;101442.19;;;9.75;75.42
15646;BME280;7922;43.622;1.476;2023-02-19T09:42:30;101526.19;;;10.21;74.44
15646;BME280;7922;43.622;1.476;2023-02-19T09:44:58;101420.13;;;9.78;73.91
15646;BME280;7922;43.622;1.476;2023-02-19T09:47:27;101461.00;;;10.14;73.08
15646;BME280;7922;43.622;1.476;2023-02-19T09:49:55;101389.97;;;9.88;73.21
15646;BME280;7922;43.622;1.476;2023-02-19T09:52:56;101523.34;;;10.84;72.98
15646;BME280;7922;43.622;1.476;2023-02-19T09:55:31;101501.53;;;10.70;72.83
15646;BME280;7922;43.622;1.476;2023-02-19T09:57:59;101511.91;;;10.82;73.03
15646;BME280;7922;43.622;1.476;2023-02-19T10:00:28;101513.84;;;10.73;72.40
15646;BME280;7922;43.622;1.476;2023-02-19T10:03:08;101522.66;;;10.75;72.76
15646;BME280;7922;43.622;1.476;2023-02-19T10:05:34;101375.34;;;10.15;72.80
15646;BME280;7922;43.622;1.476;2023-02-19T10:08:03;101510.47;;;11.11;72.29
15646;BME280;7922;43.622;1.476;2023-02-19T10:10:34;101490.19;;;11.07;72.03
15646;BME280;7922;43.622;1.476;2023-02-19T10:13:19;101529.75;;;11.19;73.62
15646;BME280;7922;43.622;1.476;2023-02-19T10:15:53;101371.47;;;10.34;74.12
15646;BME280;7922;43.622;1.476;2023-02-19T10:18:26;101511.41;;;11.07;73.99
15646;BME280;7922;43.622;1.476;2023-02-19T10:20:52;101428.06;;;10.78;72.48
15646;BME280;7922;43.622;1.476;2023-02-19T10:23:17;101459.13;;;11.15;72.26
15646;BME280;7922;43.622;1.476;2023-02-19T10:25:49;101428.44;;;11.02;71.90
15646;BME280;7922;43.622;1.476;2023-02-19T10:28:18;101311.53;;;10.32;71.69
15646;BME280;7922;43.622;1.476;2023-02-19T10:30:49;101495.16;;;11.64;71.69
15646;BME280;7922;43.622;1.476;2023-02-19T10:33:15;101403.66;;;11.04;72.04
15646;BME280;7922;43.622;1.476;2023-02-19T10:35:56;101534.13;;;12.04;72.07
15646;BME280;7922;43.622;1.476;2023-02-19T10:38:26;101495.44;;;11.92;71.35
15646;BME280;7922;43.622;1.476;2023-02-19T10:41:03;101283.44;;;10.65;72.17
15646;BME280;7922;43.622;1.476;2023-02-19T10:43:34;101523.03;;;12.22;71.85
15646;BME280;7922;43.622;1.476;2023-02-19T10:46:03;101508.09;;;12.18;72.33
15646;BME280;7922;43.622;1.476;2023-02-19T10:48:36;101348.59;;;11.16;72.21
15646;BME280;7922;43.622;1.476;2023-02-19T10:51:09;101438.44;;;11.70;71.99
15646;BME280;7922;43.622;1.476;2023-02-19T10:53:42;101342.72;;;11.40;72.19
15646;BME280;7922;43.622;1.476;2023-02-19T10:56:21;101422.53;;;12.06;71.58
15646;BME280;7922;43.622;1.476;2023-02-19T10:58:47;101461.34;;;12.45;71.01
15646;BME280;7922;43.622;1.476;2023-02-19T11:01:15;101372.63;;;11.84;71.37
15646;BME280;7922;43.622;1.476;2023-02-19T11:03:41;101499.78;;;12.66;71.57
15646;BME280;7922;43.622;1.476;2023-02-19T11:06:09;101488.41;;;12.61;71.85
15646;BME280;7922;43.622;1.476;2023-02-19T11:11:30;101509.03;;;12.84;72.25
15646;BME280;7922;43.622;1.476;2023-02-19T11:13:58;101512.06;;;13.03;72.30
15646;BME280;7922;43.622;1.476;2023-02-19T11:16:37;101517.94;;;13.14;72.29
15646;BME280;7922;43.622;1.476;2023-02-19T11:19:03;101373.03;;;12.36;72.21
15646;BME280;7922;43.622;1.476;2023-02-19T11:21:29;101464.38;;;12.95;72.23
15646;BME280;7922;43.622;1.476;2023-02-19T11:23:55;101440.38;;;12.98;71.91
15646;BME280;7922;43.622;1.476;2023-02-19T11:26:23;101513.66;;;13.41;71.44
15646;BME280;7922;43.622;1.476;2023-02-19T11:29:00;101434.41;;;12.90;71.87
15646;BME280;7922;43.622;1.476;2023-02-19T11:31:31;101409.72;;;12.85;71.87
15646;BME280;7922;43.622;1.476;2023-02-19T11:34:01;101501.06;;;13.46;71.90
15646;BME280;7922;43.622;1.476;2023-02-19T11:39:15;101470.06;;;13.45;71.49
15646;BME280;7922;43.622;1.476;2023-02-19T11:49:41;101446.19;;;13.70;70.92
15646;BME280;7922;43.622;1.476;2023-02-19T11:55:35;101472.34;;;14.12;70.22
15646;BME280;7922;43.622;1.476;2023-02-19T11:58:41;101466.03;;;14.16;70.33
15646;BME280;7922;43.622;1.476;2023-02-19T12:29:02;101343.09;;;14.51;68.93
15646;BME280;7922;43.622;1.476;2023-02-19T12:34:26;101398.66;;;14.86;68.40
15646;BME280;7922;43.622;1.476;2023-02-19T12:40:13;101242.47;;;14.07;69.02
15646;BME280;7922;43.622;1.476;2023-02-19T12:43:05;101380.69;;;14.91;69.01
15646;BME280;7922;43.622;1.476;2023-02-19T12:48:44;101254.50;;;14.42;68.39
15646;BME280;7922;43.622;1.476;2023-02-19T12:51:25;101338.81;;;14.93;68.71
15646;BME280;7922;43.622;1.476;2023-02-19T12:54:00;101354.16;;;15.10;68.44
15646;BME280;7922;43.622;1.476;2023-02-19T12:56:32;101322.41;;;14.81;67.77
15646;BME280;7922;43.622;1.476;2023-02-19T12:59:12;101341.41;;;14.95;68.13
15646;BME280;7922;43.622;1.476;2023-02-19T13:02:21;101359.03;;;15.23;68.06
15646;BME280;7922;43.622;1.476;2023-02-19T13:05:14;101356.78;;;15.34;67.85
15646;BME280;7922;43.622;1.476;2023-02-19T13:13:00;101216.38;;;14.64;67.53
15646;BME280;7922;43.622;1.476;2023-02-19T13:15:34;101318.66;;;15.52;67.53
15646;BME280;7922;43.622;1.476;2023-02-19T13:18:03;101313.94;;;15.59;66.44
15646;BME280;7922;43.622;1.476;2023-02-19T13:20:37;101153.13;;;14.44;67.16
15646;BME280;7922;43.622;1.476;2023-02-19T13:23:19;101333.69;;;15.55;67.29
15646;BME280;7922;43.622;1.476;2023-02-19T13:31:46;101305.63;;;15.67;66.39
15646;BME280;7922;43.622;1.476;2023-02-19T13:36:47;101263.22;;;15.37;66.79
15646;BME280;7922;43.622;1.476;2023-02-19T13:39:14;101256.41;;;15.50;66.84
15646;BME280;7922;43.622;1.476;2023-02-19T13:41:42;101150.88;;;14.79;67.21
15646;BME280;7922;43.622;1.476;2023-02-19T13:44:18;101097.91;;;14.69;66.61
15646;BME280;7922;43.622;1.476;2023-02-19T13:46:45;101241.19;;;15.52;66.69
15646;BME280;7922;43.622;1.476;2023-02-19T13:51:58;101230.91;;;15.63;66.85
15646;BME280;7922;43.622;1.476;2023-02-19T13:59:52;101135.50;;;15.06;66.35
15646;BME280;7922;43.622;1.476;2023-02-19T14:16:57;101125.63;;;15.28;64.13
15646;BME280;7922;43.622;1.476;2023-02-19T14:25:39;101217.41;;;16.07;64.23
15646;BME280;7922;43.622;1.476;2023-02-19T14:33:15;101086.41;;;15.10;63.61
15646;BME280;7922;43.622;1.476;2023-02-19T14:35:44;101207.09;;;15.79;64.21
15646;BME280;7922;43.622;1.476;2023-02-19T14:38:31;101173.97;;;15.63;63.78
15646;BME280;7922;43.622;1.476;2023-02-19T14:40:59;101210.44;;;15.84;63.85
15646;BME280;7922;43.622;1.476;2023-02-19T14:43:25;101205.09;;;15.84;63.26
15646;BME280;7922;43.622;1.476;2023-02-19T14:46:00;101107.53;;;15.35;63.22
15646;BME280;7922;43.622;1.476;2023-02-19T14:48:32;101091.13;;;15.24;63.12
15646;BME280;7922;43.622;1.476;2023-02-19T14:51:03;101203.22;;;15.86;63.45
15646;BME280;7922;43.622;1.476;2023-02-19T14:53:36;101205.22;;;16.02;63.14
15646;BME280;7922;43.622;1.476;2023-02-19T14:56:04;101221.25;;;16.02;62.95
15646;BME280;7922;43.622;1.476;2023-02-19T14:58:32;101175.09;;;15.78;63.12
15646;BME280;7922;43.622;1.476;2023-02-19T15:00:58;101001.38;;;14.82;62.72
15646;BME280;7922;43.622;1.476;2023-02-19T15:05:54;101111.16;;;15.34;63.89
15646;BME280;7922;43.622;1.476;2023-02-19T15:08:30;101199.75;;;15.84;62.97
15646;BME280;7922;43.622;1.476;2023-02-19T15:10:56;101192.47;;;15.88;62.82
15646;BME280;7922;43.622;1.476;2023-02-19T15:13:25;101139.72;;;15.52;62.98
15646;BME280;7922;43.622;1.476;2023-02-19T15:15:51;101166.06;;;15.60;63.77
15646;BME280;7922;43.622;1.476;2023-02-19T15:18:23;101164.41;;;15.57;63.57
15646;BME280;7922;43.622;1.476;2023-02-19T15:20:49;101138.91;;;15.50;63.64
15646;BME280;7922;43.622;1.476;2023-02-19T15:23:20;101099.34;;;15.19;63.64
15646;BME280;7922;43.622;1.476;2023-02-19T15:25:47;101047.91;;;14.95;63.17